KCQX

Chatham Municipal Airport

Chatham, Massachusetts, USA

KCQX 110852Z AUTO 26003KT 10SM OVC039 02/M04 A2996 RMK AO2 SLP149 T00171044 58005

Observed Flight Rules
Dec-11 @ 08:52 UTC (21 minutes ago) Visual Flight Rules
Wind Visibility Clouds
260° at 3 knots 10 miles
  • Overcast at 3,900' AGL
Temperatures Readings
Current 2°C / 36°F
Dewpoint -4°C / 25°F
Humidity 65%
Altimeter 29.96" Hg
Pressure 1014.9 hPa
Elevation 19
Observed Flight Rules
Dec-11 @ 08:52 UTC
(21 minutes ago)
VFR
Wind Visibility
260° at 3 knots 10 miles
Clouds
  • Overcast at 3,900' AGL
Temperature Dewpoint
2°C / 36°F -4°C / 25°F
Humidity Altimeter Pressure
65% 29.96" Hg 1014.9 hPa